createdAt,value
2019-02-12T00:01:06.731Z,77.80
2019-02-12T00:03:35.987Z,78.30
2019-02-12T00:06:05.462Z,75.90
2019-02-12T00:08:35.111Z,76.40
2019-02-12T00:11:04.161Z,76.70
2019-02-12T00:13:33.534Z,77.70
2019-02-12T00:16:02.592Z,78.00
2019-02-12T00:18:31.638Z,78.40
2019-02-12T00:21:08.756Z,79.00
2019-02-12T00:23:31.402Z,79.40
2019-02-12T00:26:00.444Z,79.70
2019-02-12T00:28:29.609Z,80.00
2019-02-12T00:30:58.665Z,80.00
2019-02-12T00:33:27.709Z,80.30
2019-02-12T00:35:56.810Z,80.40
2019-02-12T00:38:25.865Z,80.70
2019-02-12T00:40:54.931Z,80.90
2019-02-12T00:43:24.701Z,81.10
2019-02-12T00:45:53.682Z,81.00
2019-02-12T00:48:22.730Z,81.10
2019-02-12T00:50:51.832Z,81.10
2019-02-12T00:53:21.290Z,81.20
2019-02-12T00:55:50.475Z,81.30
2019-02-12T00:58:20.051Z,81.30
2019-02-12T01:00:49.101Z,81.30
2019-02-12T01:03:18.174Z,81.60
2019-02-12T01:05:47.618Z,81.50
2019-02-12T01:08:16.603Z,81.30
2019-02-12T01:10:46.223Z,81.40
2019-02-12T01:13:15.567Z,81.50
2019-02-12T01:15:44.628Z,81.60
2019-02-12T01:18:13.669Z,81.60
2019-02-12T01:20:42.942Z,81.70
2019-02-12T01:23:12.106Z,81.80
2019-02-12T01:25:41.258Z,81.70
2019-02-12T01:28:10.352Z,81.80
2019-02-12T01:30:39.410Z,81.80
2019-02-12T01:33:08.506Z,81.80
2019-02-12T01:35:37.686Z,81.90
2019-02-12T01:38:06.643Z,81.80
2019-02-12T01:40:35.631Z,81.70
2019-02-12T01:43:05.483Z,81.80
2019-02-12T01:45:34.550Z,82.00
2019-02-12T01:48:03.645Z,82.00
2019-02-12T01:50:32.789Z,81.90
2019-02-12T01:53:01.967Z,82.10
2019-02-12T01:55:30.947Z,80.70
2019-02-12T01:58:00.443Z,80.40
2019-02-12T02:00:29.525Z,80.50
2019-02-12T02:02:58.516Z,80.40
2019-02-12T02:05:28.073Z,80.70
2019-02-12T02:07:57.147Z,80.60
2019-02-12T02:10:26.235Z,80.70
2019-02-12T02:12:56.622Z,80.90
2019-02-12T02:15:25.746Z,80.80
2019-02-12T02:17:54.835Z,81.00
2019-02-12T02:20:23.914Z,80.90
2019-02-12T02:22:54.207Z,81.20
2019-02-12T02:25:23.313Z,81.00
2019-02-12T02:27:52.498Z,80.90
2019-02-12T02:30:21.607Z,80.80
2019-02-12T02:32:50.617Z,80.70
2019-02-12T02:35:20.008Z,80.60
2019-02-12T02:37:49.427Z,80.60
2019-02-12T02:40:18.578Z,80.60
2019-02-12T02:42:48.133Z,80.80
2019-02-12T02:45:19.510Z,80.80
2019-02-12T02:47:48.689Z,80.70
2019-02-12T02:50:18.298Z,80.70
2019-02-12T02:52:47.599Z,80.70
2019-02-12T02:55:18.046Z,80.50
2019-02-12T02:57:48.001Z,80.30
2019-02-12T03:00:17.185Z,80.50
2019-02-12T03:02:46.753Z,80.50
2019-02-12T03:05:17.569Z,80.50
2019-02-12T03:07:46.750Z,80.40
2019-02-12T03:10:15.910Z,80.60
2019-02-12T03:12:45.866Z,80.20
2019-02-12T03:15:15.047Z,80.20
2019-02-12T03:17:44.198Z,80.20
2019-02-12T03:20:13.326Z,80.30
2019-02-12T03:22:42.394Z,80.60
2019-02-12T03:25:11.526Z,80.50
2019-02-12T03:27:40.988Z,80.10
2019-02-12T03:30:10.787Z,80.10
2019-02-12T03:32:40.291Z,80.20
2019-02-12T03:35:10.069Z,80.20
2019-02-12T03:37:39.167Z,79.80
2019-02-12T03:40:09.502Z,79.70
2019-02-12T03:42:38.990Z,79.70
2019-02-12T03:45:09.131Z,79.40
2019-02-12T03:47:38.333Z,79.30
2019-02-12T03:50:08.661Z,79.50
2019-02-12T03:52:38.445Z,79.50
2019-02-12T03:55:09.114Z,79.30
2019-02-12T03:57:38.443Z,79.40
2019-02-12T04:00:10.260Z,79.30
2019-02-12T04:02:54.599Z,79.20
2019-02-12T04:05:23.827Z,79.50
2019-02-12T04:07:55.050Z,80.00
2019-02-12T04:10:27.383Z,79.30
2019-02-12T04:12:56.618Z,78.70
2019-02-12T04:15:25.825Z,79.20
2019-02-12T04:17:55.318Z,79.20
2019-02-12T04:20:24.671Z,79.20
2019-02-12T04:22:54.898Z,79.20
2019-02-12T04:25:24.354Z,79.00
2019-02-12T04:27:55.369Z,78.90
2019-02-12T04:30:24.446Z,78.90
2019-02-12T04:32:53.572Z,78.80
2019-02-12T04:35:22.768Z,79.00
2019-02-12T04:37:51.849Z,78.90
2019-02-12T04:40:21.847Z,78.90
2019-02-12T04:42:51.038Z,78.70
2019-02-12T04:45:20.245Z,78.70
2019-02-12T04:47:51.839Z,79.00
2019-02-12T04:50:21.114Z,78.80
2019-02-12T04:52:50.526Z,78.90
2019-02-12T04:55:20.148Z,78.70
2019-02-12T04:57:50.660Z,78.70
2019-02-12T05:00:19.794Z,78.60
2019-02-12T05:02:49.080Z,78.70
2019-02-12T05:05:18.289Z,78.70
2019-02-12T05:07:47.447Z,78.70
2019-02-12T05:10:17.548Z,78.80
2019-02-12T05:12:46.775Z,78.70
2019-02-12T05:15:18.954Z,78.50
2019-02-12T05:17:48.920Z,78.60
2019-02-12T05:20:21.059Z,78.60
2019-02-12T05:22:50.211Z,78.40
2019-02-12T05:25:19.344Z,78.40
2019-02-12T05:27:48.671Z,78.40
2019-02-12T05:30:17.839Z,78.60
2019-02-12T05:32:47.109Z,78.50
2019-02-12T05:35:16.369Z,78.50
2019-02-12T05:37:45.693Z,78.40
2019-02-12T05:40:16.954Z,78.50
2019-02-12T05:42:46.135Z,78.40
2019-02-12T05:45:15.258Z,78.40
2019-02-12T05:47:44.545Z,78.30
2019-02-12T05:50:13.767Z,78.30
2019-02-12T05:52:53.334Z,78.20
2019-02-12T05:55:14.765Z,78.30
2019-02-12T05:57:43.885Z,78.20
2019-02-12T06:00:15.895Z,78.00
2019-02-12T06:02:46.212Z,77.90
2019-02-12T06:05:25.742Z,77.90
2019-02-12T06:07:54.938Z,78.10
2019-02-12T06:10:24.069Z,78.00
2019-02-12T06:12:53.209Z,78.10
2019-02-12T06:15:23.174Z,77.90
2019-02-12T06:17:52.304Z,77.90
2019-02-12T06:20:21.363Z,77.80
2019-02-12T06:22:50.452Z,77.90
2019-02-12T06:25:19.566Z,78.10
2019-02-12T06:27:48.715Z,78.00
2019-02-12T06:30:17.832Z,77.90
2019-02-12T06:32:46.913Z,77.80
2019-02-12T06:35:16.367Z,77.80
2019-02-12T06:37:45.887Z,77.80
2019-02-12T06:40:14.970Z,77.90
2019-02-12T06:42:44.138Z,77.90
2019-02-12T06:45:14.066Z,77.80
2019-02-12T06:47:43.181Z,77.70
2019-02-12T06:50:12.300Z,78.10
2019-02-12T06:52:41.555Z,78.00
2019-02-12T06:55:10.787Z,77.80
2019-02-12T06:57:40.290Z,78.20
2019-02-12T07:00:09.708Z,78.40
2019-02-12T07:03:24.985Z,78.20
2019-02-12T07:06:07.707Z,78.20
2019-02-12T07:09:07.547Z,78.60
2019-02-12T07:12:05.349Z,78.80
2019-02-12T07:15:02.238Z,78.70
2019-02-12T07:18:04.419Z,79.00
2019-02-12T07:21:28.590Z,78.80
2019-02-12T07:24:29.910Z,78.70
2019-02-12T07:27:27.810Z,78.40
2019-02-12T07:30:28.899Z,78.40
2019-02-12T07:33:47.134Z,78.20
2019-02-12T07:36:56.798Z,78.10
2019-02-12T07:39:47.868Z,78.20
2019-02-12T07:42:56.898Z,78.10
2019-02-12T07:46:13.641Z,77.80
2019-02-12T07:49:23.260Z,77.60
2019-02-12T07:52:33.735Z,77.50
2019-02-12T07:55:29.023Z,77.40
2019-02-12T07:58:38.825Z,77.10
2019-02-12T08:02:01.526Z,76.90
2019-02-12T08:05:06.464Z,76.90
2019-02-12T08:08:07.260Z,77.00
2019-02-12T08:11:06.731Z,76.90
2019-02-12T08:13:58.335Z,77.20
2019-02-12T08:17:12.115Z,77.60
2019-02-12T08:20:21.048Z,77.00
2019-02-12T08:23:27.086Z,76.50
2019-02-12T08:26:27.699Z,76.20
2019-02-12T08:29:42.807Z,76.10
2019-02-12T08:32:45.690Z,76.10
2019-02-12T08:35:40.806Z,76.30
2019-02-12T08:38:59.344Z,76.30
2019-02-12T08:41:49.711Z,76.20
2019-02-12T08:44:43.552Z,76.20
2019-02-12T08:47:59.727Z,76.10
2019-02-12T08:51:06.358Z,76.20
2019-02-12T08:54:06.835Z,76.20
2019-02-12T08:57:12.264Z,76.10
2019-02-12T08:59:57.710Z,75.90
2019-02-12T09:03:09.812Z,76.00
2019-02-12T09:06:21.884Z,75.70
2019-02-12T09:09:37.154Z,75.00
2019-02-12T09:12:31.043Z,74.50
2019-02-12T09:15:37.577Z,74.10
2019-02-12T09:18:56.847Z,74.00
2019-02-12T09:22:03.906Z,73.80
2019-02-12T09:24:48.076Z,73.70
2019-02-12T09:27:32.590Z,73.50
2019-02-12T09:30:30.984Z,73.40
2019-02-12T09:33:59.850Z,73.20
2019-02-12T09:36:51.419Z,73.00
2019-02-12T09:39:44.753Z,72.60
2019-02-12T09:42:35.036Z,72.60
2019-02-12T09:45:27.281Z,72.30
2019-02-12T09:48:26.530Z,72.30
2019-02-12T09:51:17.822Z,76.50
2019-02-12T09:54:37.671Z,76.50
2019-02-12T09:57:33.141Z,75.70
2019-02-12T10:00:23.914Z,75.80
2019-02-12T10:03:43.387Z,75.80
2019-02-12T10:06:43.965Z,75.30
2019-02-12T10:09:45.350Z,75.60
2019-02-12T10:13:07.880Z,74.60
2019-02-12T10:16:08.538Z,74.50
2019-02-12T10:18:58.879Z,74.20
2019-02-12T10:22:08.402Z,74.10
2019-02-12T10:24:58.939Z,73.90
2019-02-12T10:28:33.830Z,73.80
2019-02-12T10:31:09.973Z,73.70
2019-02-12T10:33:39.404Z,73.60
2019-02-12T10:36:08.688Z,73.60
2019-02-12T10:38:37.888Z,73.40
2019-02-12T10:41:07.471Z,73.20
2019-02-12T10:43:36.628Z,73.00
2019-02-12T10:46:05.756Z,73.00
2019-02-12T10:48:35.041Z,72.80
2019-02-12T10:51:04.285Z,72.80
2019-02-12T10:53:33.378Z,72.80
2019-02-12T10:56:02.502Z,72.50
2019-02-12T10:58:32.352Z,72.50
2019-02-12T11:01:01.546Z,72.20
2019-02-12T11:03:31.800Z,72.50
2019-02-12T11:06:00.948Z,72.10
2019-02-12T11:08:30.070Z,72.30
2019-02-12T11:10:59.176Z,72.40
2019-02-12T11:13:28.276Z,72.30
2019-02-12T11:15:57.419Z,72.40
2019-02-12T11:18:26.962Z,72.40
2019-02-12T11:20:56.013Z,72.40
2019-02-12T11:23:25.077Z,72.40
2019-02-12T11:25:54.263Z,72.60
2019-02-12T11:28:23.357Z,72.40
2019-02-12T11:30:52.487Z,72.70
2019-02-12T11:33:21.688Z,72.50
2019-02-12T11:35:50.885Z,72.60
2019-02-12T11:38:19.942Z,72.70
2019-02-12T11:40:49.717Z,72.60
2019-02-12T11:43:18.779Z,72.60
2019-02-12T11:45:47.873Z,72.60
2019-02-12T11:48:17.988Z,72.70
2019-02-12T11:50:47.419Z,72.60
2019-02-12T11:53:16.472Z,72.40
2019-02-12T11:55:45.547Z,72.60
2019-02-12T11:58:15.646Z,72.40
2019-02-12T12:00:52.930Z,72.60
2019-02-12T12:03:21.990Z,72.30
2019-02-12T12:05:50.977Z,72.30
2019-02-12T12:08:20.322Z,72.40
2019-02-12T12:10:49.413Z,72.20
2019-02-12T12:13:18.547Z,72.40
2019-02-12T12:15:47.911Z,72.20
2019-02-12T12:18:17.046Z,72.20
2019-02-12T12:20:46.088Z,72.20
2019-02-12T12:23:15.786Z,72.00
2019-02-12T12:25:44.862Z,72.20
2019-02-12T12:28:13.943Z,72.10
2019-02-12T12:30:42.974Z,72.00
2019-02-12T12:33:12.261Z,72.00
2019-02-12T12:35:41.334Z,71.90
2019-02-12T12:38:10.991Z,72.10
2019-02-12T12:40:40.044Z,71.80
2019-02-12T12:43:09.093Z,71.60
2019-02-12T12:45:38.866Z,71.50
2019-02-12T12:48:07.919Z,71.40
2019-02-12T12:50:36.962Z,71.30
2019-02-12T12:53:06.038Z,71.10
2019-02-12T12:55:35.118Z,71.00
2019-02-12T12:58:04.620Z,70.70
2019-02-12T13:00:34.831Z,70.80
2019-02-12T13:03:03.804Z,71.00
2019-02-12T13:05:32.933Z,70.90
2019-02-12T13:08:02.111Z,70.90
2019-02-12T13:10:31.284Z,70.60
2019-02-12T13:13:00.437Z,70.50
2019-02-12T13:15:29.571Z,70.40
2019-02-12T13:17:58.849Z,70.20
2019-02-12T13:20:27.837Z,70.30
2019-02-12T13:22:57.230Z,70.20
2019-02-12T13:25:26.303Z,70.10
2019-02-12T13:27:55.650Z,70.00
2019-02-12T13:30:24.743Z,70.00
2019-02-12T13:32:53.832Z,70.00
2019-02-12T13:35:22.883Z,70.50
2019-02-12T13:37:52.418Z,69.90
2019-02-12T13:40:21.395Z,69.80
2019-02-12T13:42:50.485Z,70.40
2019-02-12T13:45:20.640Z,69.70
2019-02-12T13:47:49.746Z,69.90
2019-02-12T13:50:18.895Z,70.00
2019-02-12T13:52:48.533Z,69.90
2019-02-12T13:55:17.906Z,69.80
2019-02-12T13:57:47.527Z,69.50
2019-02-12T14:00:18.692Z,70.00
2019-02-12T14:02:47.731Z,69.30
2019-02-12T14:05:17.353Z,69.30
2019-02-12T14:07:46.531Z,69.20
2019-02-12T14:10:15.655Z,69.10
2019-02-12T14:12:44.827Z,69.10
2019-02-12T14:15:13.868Z,69.10
2019-02-12T14:17:42.905Z,69.10
2019-02-12T14:20:12.967Z,69.30
2019-02-12T14:22:42.358Z,69.30
2019-02-12T14:25:11.762Z,69.30
2019-02-12T14:27:40.819Z,69.70
2019-02-12T14:30:12.001Z,69.80
2019-02-12T14:32:41.122Z,69.90
2019-02-12T14:35:10.799Z,70.00
2019-02-12T14:37:40.272Z,70.00
2019-02-12T14:40:10.234Z,70.00
2019-02-12T14:42:39.282Z,70.30
2019-02-12T14:45:10.342Z,70.40
2019-02-12T14:47:39.387Z,70.70
2019-02-12T14:50:09.547Z,70.80
2019-02-12T14:52:38.861Z,71.70
2019-02-12T14:55:07.949Z,71.00
2019-02-12T14:57:37.276Z,71.20
2019-02-12T15:00:08.506Z,71.20
2019-02-12T15:02:37.547Z,71.30
2019-02-12T15:05:06.680Z,71.40
2019-02-12T15:07:36.077Z,71.50
2019-02-12T15:10:06.093Z,71.70
2019-02-12T15:12:35.158Z,71.70
2019-02-12T15:15:04.398Z,71.80
2019-02-12T15:17:33.439Z,72.00
2019-02-12T15:20:02.507Z,71.90
2019-02-12T15:22:32.071Z,71.90
2019-02-12T15:25:01.160Z,72.10
2019-02-12T15:27:30.110Z,72.00
2019-02-12T15:29:59.203Z,72.10
2019-02-12T15:32:28.260Z,72.10
2019-02-12T15:34:57.226Z,72.30
2019-02-12T15:37:26.858Z,72.40
2019-02-12T15:39:55.890Z,72.50
2019-02-12T15:42:24.878Z,72.60
2019-02-12T15:44:54.485Z,72.90
2019-02-12T15:47:23.489Z,73.00
2019-02-12T15:49:52.650Z,73.30
2019-02-12T15:52:22.359Z,73.20
2019-02-12T15:54:51.587Z,73.40
2019-02-12T15:57:20.630Z,73.50
2019-02-12T15:59:49.802Z,73.80
2019-02-12T16:02:19.734Z,73.90
2019-02-12T16:04:50.169Z,74.10
2019-02-12T16:07:20.404Z,74.20
2019-02-12T16:09:50.304Z,74.30
2019-02-12T16:12:19.416Z,74.50
2019-02-12T16:14:48.554Z,74.70
2019-02-12T16:17:17.617Z,74.90
2019-02-12T16:19:47.045Z,75.10
2019-02-12T16:22:18.238Z,75.10
2019-02-12T16:24:48.696Z,75.30
2019-02-12T16:27:18.066Z,75.50
2019-02-12T16:29:47.163Z,75.60
2019-02-12T16:32:16.265Z,75.60
2019-02-12T16:34:45.380Z,75.80
2019-02-12T16:37:14.983Z,75.90
2019-02-12T16:39:44.042Z,76.00
2019-02-12T16:42:13.110Z,76.30
2019-02-12T16:44:42.582Z,76.30
2019-02-12T16:47:11.673Z,76.30
2019-02-12T16:49:40.903Z,76.50
2019-02-12T16:52:10.246Z,76.30
2019-02-12T16:54:39.413Z,76.40
2019-02-12T16:57:08.499Z,76.70
2019-02-12T16:59:37.584Z,76.70
2019-02-12T17:02:07.200Z,76.60
2019-02-12T17:04:36.274Z,76.70
2019-02-12T17:07:05.508Z,76.60
2019-02-12T17:09:35.795Z,76.80
2019-02-12T17:12:04.931Z,76.80
2019-02-12T17:14:34.115Z,76.80
2019-02-12T17:17:03.242Z,76.90
2019-02-12T17:19:32.370Z,76.80
2019-02-12T17:22:02.185Z,76.80
2019-02-12T17:24:32.950Z,76.90
2019-02-12T17:27:02.766Z,77.00
2019-02-12T17:29:31.908Z,76.90
2019-02-12T17:32:01.709Z,77.10
2019-02-12T17:34:30.834Z,77.20
2019-02-12T17:37:03.926Z,76.90
2019-02-12T17:39:35.235Z,74.70
2019-02-12T17:42:04.803Z,72.10
2019-02-12T17:44:34.421Z,68.90
2019-02-12T17:47:03.580Z,66.30
2019-02-12T17:49:32.620Z,63.70
2019-02-12T17:52:02.059Z,61.40
2019-02-12T17:54:31.117Z,59.60
2019-02-12T17:57:00.275Z,58.10
2019-02-12T17:59:29.414Z,57.10
2019-02-12T18:01:58.799Z,56.20
2019-02-12T18:04:28.325Z,55.40
2019-02-12T18:06:57.775Z,54.70
2019-02-12T18:09:26.816Z,54.10
2019-02-12T18:11:55.862Z,54.00
2019-02-12T18:14:24.942Z,54.30
2019-02-12T18:16:54.071Z,53.90
2019-02-12T18:19:23.111Z,53.60
2019-02-12T18:21:52.798Z,53.20
2019-02-12T18:24:21.775Z,53.20
2019-02-12T18:26:50.831Z,53.40
2019-02-12T18:29:19.766Z,53.10
2019-02-12T18:31:48.814Z,52.50
2019-02-12T18:34:17.864Z,52.50
2019-02-12T18:36:47.074Z,53.00
2019-02-12T18:39:16.034Z,53.40
2019-02-12T18:41:45.074Z,53.60
2019-02-12T18:44:14.575Z,53.20
2019-02-12T18:46:43.778Z,52.80
2019-02-12T18:49:12.912Z,52.20
2019-02-12T18:51:42.090Z,52.40
2019-02-12T18:54:11.127Z,52.70
2019-02-12T18:56:41.665Z,52.40
2019-02-12T18:59:11.352Z,52.00
2019-02-12T19:01:40.634Z,51.80
2019-02-12T19:04:09.730Z,52.00
2019-02-12T19:06:38.923Z,52.30
2019-02-12T19:09:12.554Z,52.10
2019-02-12T19:11:52.609Z,51.80
2019-02-12T19:14:13.057Z,52.10
2019-02-12T19:16:42.510Z,52.40
2019-02-12T19:19:11.470Z,52.20
2019-02-12T19:21:40.886Z,52.00
2019-02-12T19:24:09.923Z,52.40
2019-02-12T19:26:38.883Z,52.70
2019-02-12T19:29:08.169Z,52.30
2019-02-12T19:31:37.170Z,51.90
2019-02-12T19:34:06.209Z,52.10
2019-02-12T19:36:36.070Z,52.70
2019-02-12T19:39:05.998Z,52.80
2019-02-12T19:41:35.065Z,52.50
2019-02-12T19:44:04.982Z,52.50
2019-02-12T19:46:34.038Z,52.90
2019-02-12T19:49:03.084Z,53.30
2019-02-12T19:51:32.371Z,53.10
2019-02-12T19:54:01.407Z,52.90
2019-02-12T19:56:30.382Z,53.30
2019-02-12T19:58:59.451Z,53.50
2019-02-12T20:01:28.652Z,53.60
2019-02-12T20:03:58.963Z,53.10
2019-02-12T20:06:28.247Z,53.10
2019-02-12T20:08:57.248Z,52.90
2019-02-12T20:11:26.296Z,52.80
2019-02-12T20:13:55.494Z,52.30
2019-02-12T20:16:24.639Z,52.30
2019-02-12T20:18:53.683Z,52.70
2019-02-12T20:21:22.750Z,52.80
2019-02-12T20:23:51.821Z,52.60
2019-02-12T20:26:22.458Z,52.60
2019-02-12T20:28:52.075Z,52.90
2019-02-12T20:31:21.118Z,52.60
2019-02-12T20:33:56.959Z,52.30
2019-02-12T20:36:21.606Z,52.40
2019-02-12T20:38:50.579Z,52.90
2019-02-12T20:41:19.634Z,52.70
2019-02-12T20:43:49.302Z,52.50
2019-02-12T20:46:18.367Z,52.80
2019-02-12T20:48:47.412Z,53.10
2019-02-12T20:51:16.786Z,53.30
2019-02-12T20:53:45.840Z,52.10
2019-02-12T20:56:14.882Z,52.20
2019-02-12T20:58:44.406Z,52.40
2019-02-12T21:01:14.051Z,52.60
2019-02-12T21:03:43.750Z,52.60
2019-02-12T21:06:12.874Z,52.80
2019-02-12T21:08:42.152Z,53.10
2019-02-12T21:11:11.138Z,53.70
2019-02-12T21:13:40.378Z,53.80
2019-02-12T21:16:09.498Z,53.50
2019-02-12T21:18:38.542Z,53.30
2019-02-12T21:21:07.599Z,53.50
2019-02-12T21:23:36.587Z,53.90
2019-02-12T21:26:05.707Z,54.30
2019-02-12T21:28:34.893Z,53.90
2019-02-12T21:31:03.938Z,53.80
2019-02-12T21:33:32.914Z,54.00
2019-02-12T21:36:03.358Z,54.20
2019-02-12T21:38:32.512Z,54.70
2019-02-12T21:41:01.579Z,55.10
2019-02-12T21:43:31.095Z,54.90
2019-02-12T21:46:00.148Z,54.70
2019-02-12T21:48:29.185Z,54.70
2019-02-12T21:50:58.266Z,54.90
2019-02-12T21:53:27.322Z,55.30
2019-02-12T21:55:56.351Z,55.00
2019-02-12T21:58:25.435Z,54.80
2019-02-12T22:00:54.762Z,55.00
2019-02-12T22:03:24.179Z,55.30
2019-02-12T22:05:53.974Z,55.30
2019-02-12T22:08:23.203Z,54.80
2019-02-12T22:10:52.502Z,54.80
2019-02-12T22:13:22.123Z,55.10
2019-02-12T22:15:51.190Z,55.50
2019-02-12T22:18:20.159Z,55.30
2019-02-12T22:20:49.265Z,54.80
2019-02-12T22:23:18.378Z,54.80
2019-02-12T22:25:47.419Z,55.10
2019-02-12T22:28:16.707Z,55.10
2019-02-12T22:30:45.750Z,55.20
2019-02-12T22:33:14.979Z,54.40
2019-02-12T22:35:44.023Z,54.70
2019-02-12T22:38:13.059Z,55.20
2019-02-12T22:40:42.019Z,55.40
2019-02-12T22:43:11.665Z,55.10
2019-02-12T22:45:40.696Z,54.80
2019-02-12T22:48:09.737Z,55.00
2019-02-12T22:50:38.738Z,55.50
2019-02-12T22:53:07.703Z,55.30
2019-02-12T22:55:36.746Z,55.50
2019-02-12T22:58:05.816Z,56.30
2019-02-12T23:00:54.953Z,55.80
2019-02-12T23:03:24.727Z,56.00
2019-02-12T23:05:54.934Z,56.30
2019-02-12T23:08:23.972Z,56.60
2019-02-12T23:10:53.241Z,56.70
2019-02-12T23:13:22.281Z,56.80
2019-02-12T23:15:51.317Z,57.10
2019-02-12T23:18:20.325Z,57.20
2019-02-12T23:20:49.358Z,57.50
2019-02-12T23:23:18.496Z,57.70
2019-02-12T23:25:47.882Z,57.90
2019-02-12T23:28:16.842Z,58.20
2019-02-12T23:30:45.998Z,58.30
2019-02-12T23:33:15.079Z,58.60
2019-02-12T23:35:44.285Z,58.90
2019-02-12T23:38:13.259Z,59.20
2019-02-12T23:40:42.326Z,59.70
2019-02-12T23:43:11.364Z,60.00
2019-02-12T23:45:40.393Z,60.20
2019-02-12T23:48:09.722Z,60.30
2019-02-12T23:50:38.764Z,60.70
2019-02-12T23:53:07.806Z,60.70
2019-02-12T23:55:36.871Z,61.10
2019-02-12T23:58:06.359Z,61.30
